Time;durP1;ratioP1;P1;durP2;ratioP2;P2;SDS_P1;SDS_P2;PMS_P1;PMS_P2;Temp;Humidity;BMP_temperature;BMP_pressure;BME280_temperature;BME280_humidity;BME280_pressure;Samples;Min_cycle;Max_cycle;Signal;HPM_P1;HPM_P2
2023/02/16 00:00:58;;;;;;;24.67;16.75;;;9.90;99.90;;;;;;5054051;28;20037;-58
2023/02/16 00:03:24;;;;;;;24.15;16.25;;;9.90;99.90;;;;;;5047478;28;20155;-61
2023/02/16 00:05:51;;;;;;;35.85;18.60;;;9.80;99.90;;;;;;5047025;28;20041;-61
2023/02/16 00:08:18;;;;;;;28.35;16.83;;;9.80;99.90;;;;;;5057190;28;20048;-59
2023/02/16 00:13:43;;;;;;;30.33;16.58;;;9.80;99.90;;;;;;5057033;28;20120;-60
2023/02/16 00:13:44;;;;;;;24.83;15.95;;;9.70;99.90;;;;;;5055836;28;20049;-60
2023/02/16 00:16:10;;;;;;;27.38;15.93;;;9.70;99.90;;;;;;5056955;28;20064;-59
2023/02/16 00:18:37;;;;;;;24.58;16.25;;;9.70;99.90;;;;;;5056837;28;20045;-61
2023/02/16 00:21:04;;;;;;;24.92;16.08;;;9.70;99.90;;;;;;5055635;28;20492;-60
2023/02/16 00:23:31;;;;;;;26.55;16.80;;;9.70;99.90;;;;;;5056793;28;20457;-60
2023/02/16 00:25:58;;;;;;;25.67;15.40;;;9.70;99.90;;;;;;5056725;28;20120;-61
2023/02/16 00:28:25;;;;;;;29.63;16.65;;;9.70;99.90;;;;;;5057256;28;20037;-55
2023/02/16 00:30:51;;;;;;;27.90;15.68;;;9.70;99.90;;;;;;5055377;28;20041;-56
2023/02/16 00:33:18;;;;;;;28.58;14.93;;;9.70;99.90;;;;;;5055425;28;20531;-58
2023/02/16 00:35:45;;;;;;;26.20;15.50;;;9.70;99.90;;;;;;5056610;28;20044;-59
2023/02/16 00:38:14;;;;;;;23.60;16.38;;;9.70;99.90;;;;;;5056379;28;20063;-62
2023/02/16 00:40:41;;;;;;;26.40;14.82;;;9.70;99.90;;;;;;5056938;28;20037;-58
2023/02/16 00:43:09;;;;;;;25.67;15.02;;;9.80;99.90;;;;;;5056686;28;20029;-58
2023/02/16 00:45:37;;;;;;;22.42;14.57;;;9.80;99.90;;;;;;5039087;28;20393;-63
2023/02/16 00:48:03;;;;;;;25.38;15.07;;;9.80;99.90;;;;;;5056403;28;20037;-57
2023/02/16 00:50:30;;;;;;;27.42;15.68;;;9.80;99.90;;;;;;5056408;28;20037;-60
2023/02/16 00:52:57;;;;;;;27.08;15.30;;;9.80;99.90;;;;;;5056419;28;20041;-61
2023/02/16 00:55:24;;;;;;;26.08;15.27;;;9.80;99.90;;;;;;5055162;28;20049;-57
2023/02/16 00:57:51;;;;;;;22.73;15.27;;;9.90;99.90;;;;;;5054808;28;20402;-62
2023/02/16 01:00:17;;;;;;;23.35;15.50;;;9.90;99.90;;;;;;5056179;28;20037;-60
2023/02/16 01:02:44;;;;;;;24.80;14.70;;;9.90;99.90;;;;;;5056166;28;20468;-64
2023/02/16 01:05:11;;;;;;;22.48;14.27;;;9.90;99.90;;;;;;5055075;28;20128;-59
2023/02/16 01:13:08;;;;;;;15.15;9.95;;;9.90;99.90;;;;;;5055984;28;20098;-58
2023/02/16 01:15:35;;;;;;;16.42;9.43;;;9.80;99.90;;;;;;5054838;28;20053;-60
2023/02/16 01:18:02;;;;;;;16.08;9.80;;;9.80;99.90;;;;;;5055979;28;20041;-59
2023/02/16 01:20:29;;;;;;;14.82;10.80;;;9.80;99.90;;;;;;5056256;28;20446;-59
2023/02/16 01:22:56;;;;;;;19.55;10.60;;;9.70;99.90;;;;;;5055671;28;20037;-57
2023/02/16 01:25:23;;;;;;;16.95;10.68;;;9.60;99.90;;;;;;5054341;28;20048;-60
2023/02/16 01:27:51;;;;;;;17.60;10.82;;;9.60;99.90;;;;;;5054204;28;20492;-62
2023/02/16 01:30:18;;;;;;;17.73;10.60;;;9.60;99.90;;;;;;5054337;28;20052;-58
2023/02/16 01:32:51;;;;;;;19.98;11.07;;;9.50;99.90;;;;;;5055308;28;20045;-62
2023/02/16 01:35:18;;;;;;;16.75;10.65;;;9.50;99.90;;;;;;5054246;28;20417;-61
2023/02/16 01:37:44;;;;;;;17.58;10.90;;;9.40;99.90;;;;;;5055592;28;20076;-58
2023/02/16 01:40:11;;;;;;;20.52;10.88;;;9.40;99.90;;;;;;5055475;28;20049;-62
2023/02/16 01:42:38;;;;;;;20.63;11.65;;;9.40;99.90;;;;;;5055598;28;20033;-61
2023/02/16 01:45:05;;;;;;;15.48;10.55;;;9.40;99.90;;;;;;5055105;28;20052;-61
2023/02/16 01:47:31;;;;;;;16.73;10.27;;;9.40;99.90;;;;;;5055484;28;20045;-62
2023/02/16 01:49:58;;;;;;;21.17;10.95;;;9.40;99.90;;;;;;5055019;28;20037;-61
2023/02/16 01:52:28;;;;;;;18.13;11.02;;;9.30;99.90;;;;;;5053921;28;20055;-62
2023/02/16 01:54:55;;;;;;;20.58;11.20;;;9.30;99.90;;;;;;5054972;28;20073;-62
2023/02/16 01:57:22;;;;;;;16.88;10.23;;;9.30;99.90;;;;;;5055000;28;20049;-59
2023/02/16 01:59:48;;;;;;;13.40;9.02;;;9.20;99.90;;;;;;5054019;28;20126;-58
2023/02/16 02:02:15;;;;;;;13.02;8.50;;;9.20;99.90;;;;;;5055289;28;20037;-61
2023/02/16 02:07:27;;;;;;;12.57;7.68;;;9.20;99.90;;;;;;5053384;28;20482;-59
2023/02/16 02:09:54;;;;;;;15.07;8.20;;;9.20;99.90;;;;;;5054778;28;20044;-60
2023/02/16 02:12:21;;;;;;;12.63;6.95;;;9.20;99.90;;;;;;5055152;28;20468;-60
2023/02/16 02:14:48;;;;;;;14.20;6.63;;;9.10;99.90;;;;;;5053762;28;20074;-60
2023/02/16 02:17:17;;;;;;;15.07;6.15;;;9.20;99.90;;;;;;5053205;28;20388;-55
2023/02/16 02:19:44;;;;;;;8.85;5.55;;;9.20;99.90;;;;;;5054810;28;20534;-60
2023/02/16 02:24:56;;;;;;;8.25;5.07;;;9.20;99.90;;;;;;5053649;28;20381;-57
2023/02/16 02:27:23;;;;;;;10.82;4.93;;;9.20;99.90;;;;;;5054621;28;20045;-59
2023/02/16 02:29:50;;;;;;;10.40;4.43;;;9.20;99.90;;;;;;5053124;28;20550;-60
2023/02/16 02:32:18;;;;;;;7.30;4.03;;;9.20;99.90;;;;;;5053149;28;20099;-55
2023/02/16 02:34:44;;;;;;;10.38;4.05;;;9.20;99.90;;;;;;5054108;28;20484;-59
2023/02/16 02:37:11;;;;;;;9.25;4.18;;;9.20;99.90;;;;;;5052947;28;20049;-57
2023/02/16 02:39:38;;;;;;;8.98;3.47;;;9.20;99.90;;;;;;5053286;28;20037;-61
2023/02/16 02:42:05;;;;;;;7.13;3.35;;;9.30;99.90;;;;;;5054010;28;20395;-61
2023/02/16 02:44:40;;;;;;;9.75;3.22;;;9.20;99.90;;;;;;5037372;28;20433;-60
2023/02/16 02:47:07;;;;;;;7.22;3.10;;;9.20;99.90;;;;;;5052548;28;20534;-62
2023/02/16 02:49:34;;;;;;;5.55;2.75;;;9.10;99.90;;;;;;5052627;28;20072;-63
2023/02/16 02:52:01;;;;;;;8.95;3.72;;;9.10;99.90;;;;;;5052653;28;20057;-60
2023/02/16 03:02:47;;;;;;;5.57;2.38;;;9.00;99.90;;;;;;5053990;28;20465;-57
2023/02/16 03:05:14;;;;;;;7.43;2.45;;;9.00;99.90;;;;;;5052649;28;20365;-57
2023/02/16 03:07:47;;;;;;;6.22;2.30;;;9.00;99.90;;;;;;5052167;28;20040;-62
2023/02/16 03:12:59;;;;;;;5.20;2.30;;;8.90;99.90;;;;;;5053703;28;20048;-58
2023/02/16 03:15:26;;;;;;;6.15;2.10;;;9.00;99.90;;;;;;5053938;28;20492;-60
2023/02/16 03:31:42;;;;;;;4.88;1.88;;;8.90;99.90;;;;;;5053601;28;20045;-63
2023/02/16 03:34:09;;;;;;;3.58;1.75;;;8.90;99.90;;;;;;5053488;28;20040;-55
2023/02/16 03:36:36;;;;;;;5.90;1.90;;;8.90;99.90;;;;;;5053582;28;20045;-57
2023/02/16 03:39:02;;;;;;;7.32;2.03;;;8.80;99.90;;;;;;5053286;28;20120;-57
2023/02/16 03:41:29;;;;;;;5.68;2.05;;;8.80;99.90;;;;;;5053483;28;20037;-60
2023/02/16 03:43:56;;;;;;;8.02;2.15;;;8.80;99.90;;;;;;5053484;28;20103;-57
2023/02/16 03:46:23;;;;;;;4.78;1.95;;;8.80;99.90;;;;;;5053217;28;20056;-56
2023/02/16 03:48:49;;;;;;;5.80;2.10;;;8.80;99.90;;;;;;5053229;28;20036;-62
2023/02/16 03:51:16;;;;;;;7.45;2.03;;;8.80;99.90;;;;;;5053385;28;20045;-61
2023/02/16 03:53:43;;;;;;;5.93;2.10;;;8.80;99.90;;;;;;5053096;28;20045;-57
2023/02/16 03:56:09;;;;;;;4.55;2.53;;;8.80;99.90;;;;;;5052948;28;20052;-56
2023/02/16 03:58:36;;;;;;;6.68;2.80;;;8.70;99.90;;;;;;5053051;28;20064;-55
2023/02/16 04:01:03;;;;;;;7.22;2.97;;;8.80;99.90;;;;;;5053065;28;20489;-62
2023/02/16 04:03:30;;;;;;;6.50;2.40;;;8.80;99.90;;;;;;5053111;28;20041;-61
2023/02/16 04:05:57;;;;;;;5.65;2.70;;;8.80;99.90;;;;;;5053251;28;20048;-61
2023/02/16 04:08:24;;;;;;;5.85;2.83;;;8.80;99.90;;;;;;5053218;28;20037;-56
2023/02/16 04:10:51;;;;;;;6.18;2.85;;;8.70;99.90;;;;;;5053077;28;20048;-63
2023/02/16 04:13:17;;;;;;;4.72;2.80;;;8.80;99.90;;;;;;5052870;28;20106;-54
2023/02/16 04:15:44;;;;;;;4.75;2.45;;;8.80;99.90;;;;;;5053144;28;20419;-60
2023/02/16 04:18:11;;;;;;;4.65;2.50;;;8.80;99.90;;;;;;5053301;28;20057;-57
2023/02/16 04:20:38;;;;;;;5.15;2.78;;;8.80;99.90;;;;;;5052863;28;20492;-55
2023/02/16 04:23:04;;;;;;;6.20;2.40;;;8.80;99.90;;;;;;5052662;28;20047;-61
2023/02/16 04:25:31;;;;;;;7.70;2.63;;;8.80;99.90;;;;;;5052820;28;20045;-59
2023/02/16 04:27:58;;;;;;;4.55;2.45;;;8.80;99.90;;;;;;5051597;28;20508;-60
2023/02/16 04:30:25;;;;;;;4.97;2.58;;;8.80;99.90;;;;;;5052860;28;20046;-59
2023/02/16 04:32:51;;;;;;;6.55;2.78;;;8.80;99.90;;;;;;5056136;28;20137;-58
2023/02/16 04:35:18;;;;;;;4.53;2.58;;;8.80;99.90;;;;;;5056452;28;20049;-59
2023/02/16 04:37:45;;;;;;;4.13;2.33;;;8.80;99.90;;;;;;5056481;28;20118;-56
2023/02/16 04:40:12;;;;;;;6.43;2.70;;;8.80;99.90;;;;;;5056392;28;20072;-56
2023/02/16 04:42:39;;;;;;;6.65;2.33;;;8.80;99.90;;;;;;5056541;28;20041;-60
2023/02/16 04:45:06;;;;;;;5.53;2.85;;;8.80;99.90;;;;;;5056502;28;20048;-57
2023/02/16 04:47:32;;;;;;;5.45;2.65;;;8.80;99.90;;;;;;5055265;28;20049;-60
2023/02/16 04:49:59;;;;;;;4.60;2.45;;;8.90;99.90;;;;;;5054940;28;20131;-62
2023/02/16 04:52:26;;;;;;;5.22;2.72;;;8.90;99.90;;;;;;5056260;28;20095;-60
2023/02/16 04:54:52;;;;;;;5.03;2.70;;;8.90;99.90;;;;;;5056184;28;20095;-61
2023/02/16 04:57:21;;;;;;;6.00;2.42;;;8.80;99.90;;;;;;5056315;28;20037;-60
2023/02/16 04:59:48;;;;;;;6.20;2.80;;;8.80;99.90;;;;;;5056412;28;20045;-63
2023/02/16 05:02:14;;;;;;;4.10;2.40;;;8.80;99.90;;;;;;5055329;28;20037;-59
2023/02/16 05:04:41;;;;;;;5.05;2.70;;;8.80;99.90;;;;;;5055873;28;20037;-60
2023/02/16 05:07:08;;;;;;;5.90;2.30;;;8.80;99.90;;;;;;5038299;28;20064;-58
2023/02/16 05:09:35;;;;;;;6.03;2.67;;;8.80;99.90;;;;;;5056050;28;20059;-60
2023/02/16 05:14:47;;;;;;;8.32;2.33;;;8.80;99.90;;;;;;5056012;28;20041;-62
2023/02/16 05:17:14;;;;;;;3.30;2.13;;;8.90;99.90;;;;;;5054515;28;20104;-62
2023/02/16 05:19:41;;;;;;;3.80;2.22;;;8.90;99.90;;;;;;5055940;28;20108;-60
2023/02/16 05:22:07;;;;;;;8.20;2.60;;;8.90;99.90;;;;;;5055659;28;20195;-58
2023/02/16 05:24:34;;;;;;;4.22;2.25;;;8.90;99.90;;;;;;5055905;28;20041;-58
2023/02/16 05:27:01;;;;;;;7.65;2.85;;;8.90;99.90;;;;;;5055547;28;20041;-60
2023/02/16 05:29:28;;;;;;;4.97;2.50;;;8.90;99.90;;;;;;5055710;28;20072;-59
2023/02/16 05:31:55;;;;;;;4.47;2.35;;;8.90;99.90;;;;;;5055792;28;20045;-61
2023/02/16 05:34:22;;;;;;;4.88;2.15;;;8.90;99.90;;;;;;5055777;28;20045;-60
2023/02/16 05:36:48;;;;;;;4.80;2.50;;;8.90;99.90;;;;;;5053870;28;20077;-60
2023/02/16 05:39:15;;;;;;;5.43;2.40;;;8.90;99.90;;;;;;5055366;28;20041;-61
2023/02/16 05:41:42;;;;;;;5.47;2.35;;;8.90;99.90;;;;;;5055321;28;20049;-62
2023/02/16 05:44:09;;;;;;;5.60;2.97;;;8.90;99.90;;;;;;5054407;28;20072;-60
2023/02/16 05:46:35;;;;;;;6.95;2.60;;;8.90;99.90;;;;;;5055201;28;20029;-62
2023/02/16 05:49:02;;;;;;;6.40;2.58;;;8.90;99.90;;;;;;5055374;28;20091;-58
2023/02/16 05:51:29;;;;;;;5.47;2.70;;;8.90;99.90;;;;;;5055485;28;20395;-59
2023/02/16 05:53:56;;;;;;;3.63;2.47;;;8.90;99.90;;;;;;5054361;28;20040;-61
2023/02/16 05:56:22;;;;;;;4.28;2.33;;;8.90;99.90;;;;;;5055234;28;20441;-61
2023/02/16 05:58:49;;;;;;;7.97;2.80;;;8.90;99.90;;;;;;5055382;28;20128;-59
2023/02/16 06:01:16;;;;;;;4.93;2.83;;;8.90;99.90;;;;;;5055149;28;20037;-61
2023/02/16 06:03:43;;;;;;;6.03;2.70;;;8.90;99.90;;;;;;5055018;28;20499;-62
2023/02/16 06:06:10;;;;;;;3.85;2.45;;;8.90;99.90;;;;;;5055148;28;20064;-60
2023/02/16 06:08:36;;;;;;;4.78;2.45;;;8.90;99.90;;;;;;5055063;28;20041;-57
2023/02/16 06:11:05;;;;;;;3.60;2.33;;;8.90;99.90;;;;;;5053836;28;20041;-62
2023/02/16 06:13:33;;;;;;;6.13;3.03;;;8.90;99.90;;;;;;5055012;28;20041;-62
2023/02/16 06:15:59;;;;;;;7.55;3.17;;;9.00;99.90;;;;;;5054604;28;20052;-59
2023/02/16 06:18:26;;;;;;;5.40;2.72;;;9.00;99.90;;;;;;5054828;28;20562;-59
2023/02/16 06:20:53;;;;;;;11.40;3.45;;;9.00;99.90;;;;;;5054838;28;20052;-62
2023/02/16 06:23:20;;;;;;;10.82;3.85;;;9.00;99.90;;;;;;5054876;28;20048;-58
2023/02/16 06:25:46;;;;;;;6.60;3.88;;;9.00;99.90;;;;;;5054863;28;20398;-59
2023/02/16 06:28:13;;;;;;;7.57;4.82;;;9.00;99.90;;;;;;5054627;28;20072;-62
2023/02/16 06:30:41;;;;;;;6.85;5.00;;;9.00;99.90;;;;;;5054684;28;20419;-59
2023/02/16 06:33:08;;;;;;;8.75;5.43;;;9.00;99.90;;;;;;5054647;28;20102;-63
2023/02/16 06:35:34;;;;;;;9.45;6.45;;;9.00;99.90;;;;;;5054615;28;20391;-61
2023/02/16 06:38:01;;;;;;;10.27;6.70;;;9.00;99.90;;;;;;5054171;28;20060;-62
2023/02/16 06:40:28;;;;;;;10.77;7.45;;;9.00;99.90;;;;;;5054219;28;20105;-60
2023/02/16 06:42:55;;;;;;;10.68;7.32;;;9.00;99.90;;;;;;5054356;28;20075;-54
2023/02/16 06:45:21;;;;;;;11.25;7.88;;;9.00;99.90;;;;;;5054356;28;20094;-59
2023/02/16 06:47:48;;;;;;;11.07;7.85;;;9.00;99.90;;;;;;5054311;28;20108;-62
2023/02/16 06:50:16;;;;;;;10.63;8.60;;;9.00;99.90;;;;;;5054135;28;20037;-55
2023/02/16 06:52:43;;;;;;;10.35;8.40;;;9.00;99.90;;;;;;5054039;28;20041;-60
2023/02/16 06:55:10;;;;;;;12.77;8.63;;;9.00;99.90;;;;;;5054350;28;20546;-60
2023/02/16 06:57:37;;;;;;;10.48;8.55;;;9.00;99.90;;;;;;5054259;28;20541;-63
2023/02/16 07:00:04;;;;;;;10.50;8.90;;;9.00;99.90;;;;;;5053687;28;20480;-60
2023/02/16 07:02:31;;;;;;;9.63;8.30;;;9.00;99.90;;;;;;5053597;28;20041;-59
2023/02/16 07:04:58;;;;;;;14.75;8.40;;;9.00;99.90;;;;;;5053907;28;20049;-58
2023/02/16 07:07:24;;;;;;;10.95;8.60;;;9.00;99.90;;;;;;5053728;28;20120;-62
2023/02/16 07:09:51;;;;;;;10.68;7.72;;;9.10;99.90;;;;;;5053656;28;20590;-60
2023/02/16 07:12:18;;;;;;;14.27;8.70;;;9.00;99.90;;;;;;5053913;28;20456;-58
2023/02/16 07:14:45;;;;;;;12.13;8.32;;;9.10;99.90;;;;;;5053960;28;20059;-64
2023/02/16 07:17:11;;;;;;;8.27;7.35;;;9.10;99.90;;;;;;5053588;28;20061;-61
2023/02/16 07:19:38;;;;;;;8.55;6.88;;;9.10;99.90;;;;;;5053788;28;20052;-59
2023/02/16 07:22:05;;;;;;;10.35;7.10;;;9.10;99.90;;;;;;5053833;28;20049;-60
2023/02/16 07:24:32;;;;;;;8.77;6.45;;;9.10;99.90;;;;;;5053581;28;20045;-61
2023/02/16 07:26:58;;;;;;;8.13;6.70;;;9.10;99.90;;;;;;5053344;28;20036;-63
2023/02/16 07:29:25;;;;;;;9.05;7.55;;;9.20;99.90;;;;;;5053712;28;20033;-60
2023/02/16 07:31:53;;;;;;;9.57;6.63;;;9.20;99.90;;;;;;5052223;28;20087;-61
2023/02/16 07:34:20;;;;;;;11.52;7.55;;;9.20;99.90;;;;;;5053549;28;20551;-63
2023/02/16 07:36:47;;;;;;;9.35;7.40;;;9.20;99.90;;;;;;5053433;28;20152;-62
2023/02/16 07:39:14;;;;;;;9.18;6.65;;;9.20;99.90;;;;;;5053502;28;20041;-60
2023/02/16 07:41:41;;;;;;;8.68;6.50;;;9.20;99.90;;;;;;5053283;28;20507;-57
2023/02/16 07:44:08;;;;;;;10.15;6.38;;;9.20;99.90;;;;;;5053366;28;20140;-60
2023/02/16 07:46:34;;;;;;;7.15;6.20;;;9.30;99.90;;;;;;5053219;28;20041;-60
2023/02/16 07:49:01;;;;;;;8.38;5.88;;;9.30;99.90;;;;;;5053373;28;20068;-59
2023/02/16 07:51:28;;;;;;;8.80;5.22;;;9.30;99.90;;;;;;5053211;28;20094;-62
2023/02/16 07:53:55;;;;;;;10.98;4.95;;;9.30;99.90;;;;;;5053212;28;20507;-63
2023/02/16 07:56:21;;;;;;;6.68;4.47;;;9.40;99.90;;;;;;5053217;28;20048;-61
2023/02/16 07:58:48;;;;;;;8.40;3.90;;;9.40;99.90;;;;;;5053472;28;20045;-60
2023/02/16 08:01:15;;;;;;;7.15;3.90;;;9.40;99.90;;;;;;5053636;28;20095;-61
2023/02/16 08:03:43;;;;;;;5.13;3.60;;;9.40;99.90;;;;;;5053246;28;20041;-61
2023/02/16 08:06:09;;;;;;;26.83;19.25;;;9.40;99.90;;;;;;5053468;28;20416;-61
2023/02/16 08:08:36;;;;;;;7.35;3.90;;;9.40;99.90;;;;;;5056970;28;20044;-63
2023/02/16 08:11:03;;;;;;;6.38;3.03;;;9.40;99.90;;;;;;5057384;28;20048;-60
2023/02/16 08:13:30;;;;;;;5.07;2.40;;;9.50;99.90;;;;;;5055983;28;20393;-63
2023/02/16 08:15:57;;;;;;;6.10;2.55;;;9.50;99.90;;;;;;5055136;28;20044;-61
2023/02/16 08:18:23;;;;;;;6.18;2.20;;;9.60;99.90;;;;;;5054611;28;20095;-63
2023/02/16 08:20:50;;;;;;;6.47;2.00;;;9.60;99.90;;;;;;5055223;28;20041;-62
2023/02/16 08:23:30;;;;;;;4.78;1.98;;;9.60;99.90;;;;;;5055457;28;20156;-61
2023/02/16 08:25:57;;;;;;;4.50;1.48;;;9.70;99.90;;;;;;5055431;28;20033;-60
2023/02/16 08:28:27;;;;;;;3.05;1.27;;;9.70;99.90;;;;;;5056058;28;20423;-62
2023/02/16 08:30:54;;;;;;;5.85;1.27;;;9.80;99.90;;;;;;5055774;28;20527;-62
2023/02/16 08:33:21;;;;;;;2.38;1.00;;;9.80;99.90;;;;;;5056869;28;20102;-60
2023/02/16 08:35:48;;;;;;;2.40;1.08;;;9.80;99.90;;;;;;5056871;28;20076;-63
2023/02/16 08:38:16;;;;;;;4.47;1.30;;;9.90;99.90;;;;;;5057054;28;20108;-61
2023/02/16 08:40:42;;;;;;;3.53;0.90;;;9.90;99.90;;;;;;5056550;28;20041;-61
2023/02/16 08:43:09;;;;;;;4.93;1.20;;;9.90;99.90;;;;;;5056677;28;20112;-61
2023/02/16 08:45:36;;;;;;;12.88;1.70;;;10.00;99.90;;;;;;5056235;28;20037;-64
2023/02/16 08:48:03;;;;;;;3.78;1.25;;;10.00;99.90;;;;;;5056629;28;20037;-62
2023/02/16 08:50:31;;;;;;;3.60;0.95;;;10.00;99.90;;;;;;5056452;28;20044;-61
2023/02/16 08:52:58;;;;;;;8.27;1.20;;;10.00;99.90;;;;;;5056230;28;20045;-63
2023/02/16 08:55:25;;;;;;;39.72;3.97;;;10.00;99.90;;;;;;5056668;28;20483;-63
2023/02/16 08:57:51;;;;;;;4.13;1.13;;;10.00;99.90;;;;;;5056196;28;20053;-61
2023/02/16 09:00:33;;;;;;;4.68;1.10;;;10.00;99.90;;;;;;5056292;28;20052;-62
2023/02/16 09:03:00;;;;;;;4.43;0.98;;;10.00;99.90;;;;;;5056355;28;20041;-60
2023/02/16 09:05:27;;;;;;;9.32;1.85;;;10.00;99.90;;;;;;5055666;28;20562;-63
2023/02/16 09:07:54;;;;;;;9.82;1.38;;;10.10;99.90;;;;;;5055902;28;20037;-62
2023/02/16 09:10:21;;;;;;;6.72;1.08;;;10.10;99.90;;;;;;5056462;28;20037;-60
2023/02/16 09:12:48;;;;;;;9.20;1.35;;;10.10;99.90;;;;;;5055961;28;20045;-61
2023/02/16 09:15:15;;;;;;;2.80;1.15;;;10.10;99.90;;;;;;5054673;28;20531;-61
2023/02/16 09:17:42;;;;;;;4.20;0.93;;;10.10;99.90;;;;;;5054639;28;20057;-63
2023/02/16 09:20:09;;;;;;;2.42;0.90;;;10.10;99.90;;;;;;5054374;28;20505;-63
2023/02/16 09:22:35;;;;;;;2.05;0.80;;;10.10;99.90;;;;;;5056106;28;20094;-61
2023/02/16 09:25:02;;;;;;;2.30;0.93;;;10.20;99.90;;;;;;5055515;28;20052;-61
2023/02/16 09:27:30;;;;;;;3.47;1.13;;;10.20;99.90;;;;;;5055501;28;20045;-61
2023/02/16 09:29:57;;;;;;;2.25;0.90;;;10.30;99.90;;;;;;5055488;28;20037;-61
2023/02/16 09:32:26;;;;;;;4.20;1.08;;;10.30;99.90;;;;;;5054224;28;20041;-61
2023/02/16 09:34:53;;;;;;;3.17;0.88;;;10.40;99.90;;;;;;5055158;28;20037;-61
2023/02/16 09:37:20;;;;;;;3.33;1.00;;;10.40;99.90;;;;;;5055229;28;20098;-63
2023/02/16 09:39:46;;;;;;;3.35;0.90;;;10.50;99.90;;;;;;5055219;28;20393;-63
2023/02/16 09:42:13;;;;;;;2.67;1.00;;;10.50;99.90;;;;;;5054173;28;20041;-63
2023/02/16 09:44:40;;;;;;;6.20;1.20;;;10.50;99.90;;;;;;5054989;28;20037;-61
2023/02/16 09:47:07;;;;;;;249.48;21.38;;;10.50;99.90;;;;;;5037203;28;20041;-64
2023/02/16 09:49:34;;;;;;;13.70;4.55;;;10.60;99.90;;;;;;5054973;28;20040;-60
2023/02/16 09:52:01;;;;;;;4.72;1.40;;;10.70;99.90;;;;;;5055111;28;20103;-63
2023/02/16 09:54:28;;;;;;;2.92;1.10;;;10.70;99.90;;;;;;5054984;28;20068;-63
2023/02/16 09:56:54;;;;;;;13.73;1.40;;;10.70;99.90;;;;;;5054731;28;20040;-62
2023/02/16 09:59:21;;;;;;;6.05;1.25;;;10.80;99.90;;;;;;5054733;28;20044;-63
2023/02/16 10:01:48;;;;;;;4.53;1.30;;;10.80;99.90;;;;;;5055244;28;20047;-62
2023/02/16 10:04:15;;;;;;;3.03;1.13;;;10.90;99.90;;;;;;5055279;28;20534;-62
2023/02/16 10:06:42;;;;;;;191.80;19.15;;;10.90;99.90;;;;;;5053570;28;20361;-63
2023/02/16 10:09:08;;;;;;;4.32;1.70;;;11.00;99.90;;;;;;5055168;28;20037;-61
2023/02/16 10:11:44;;;;;;;4.30;1.23;;;11.00;99.90;;;;;;5054628;28;20480;-61
2023/02/16 10:14:11;;;;;;;2.97;1.02;;;11.10;99.90;;;;;;5055155;28;20383;-60
2023/02/16 10:16:38;;;;;;;3.25;1.20;;;11.10;99.90;;;;;;5054515;28;20452;-64
2023/02/16 10:19:05;;;;;;;4.30;1.05;;;11.10;99.90;;;;;;5054930;28;20037;-63
2023/02/16 10:21:31;;;;;;;8.25;2.67;;;11.10;99.90;;;;;;5053493;28;20056;-61
2023/02/16 10:23:58;;;;;;;3.83;1.00;;;11.10;99.90;;;;;;5054688;28;20044;-61
2023/02/16 10:26:25;;;;;;;3.45;1.10;;;11.20;99.90;;;;;;5054387;28;20060;-61
2023/02/16 10:28:52;;;;;;;2.67;0.95;;;11.30;99.90;;;;;;5054136;28;20043;-62
2023/02/16 10:31:18;;;;;;;4.78;1.63;;;11.30;99.90;;;;;;5054503;28;20044;-61
2023/02/16 10:33:45;;;;;;;3.00;1.05;;;11.30;99.90;;;;;;5054473;28;20049;-62
2023/02/16 10:36:12;;;;;;;3.10;0.95;;;11.30;99.90;;;;;;5036474;28;20103;-63
2023/02/16 10:38:39;;;;;;;3.40;1.30;;;11.40;99.90;;;;;;5054338;28;20056;-62
2023/02/16 10:41:06;;;;;;;2.70;1.10;;;11.50;99.90;;;;;;5054278;28;20124;-64
2023/02/16 10:43:33;;;;;;;3.83;1.23;;;11.50;99.90;;;;;;5053919;28;20045;-60
2023/02/16 10:46:00;;;;;;;4.10;1.40;;;11.60;99.90;;;;;;5052906;28;20557;-64
2023/02/16 10:48:27;;;;;;;3.00;1.25;;;11.60;99.90;;;;;;5036157;28;20088;-60
2023/02/16 10:50:54;;;;;;;28.80;2.65;;;11.60;99.90;;;;;;5054043;28;20090;-60
2023/02/16 10:53:21;;;;;;;29.50;2.58;;;11.70;99.90;;;;;;5054326;28;20106;-61
2023/02/16 10:55:48;;;;;;;7.80;1.60;;;11.80;99.90;;;;;;5053857;28;20037;-61
2023/02/16 10:58:15;;;;;;;6.30;1.65;;;11.80;99.90;;;;;;5054233;28;20076;-61
2023/02/16 11:00:41;;;;;;;4.65;1.90;;;11.80;99.90;;;;;;5053680;28;20041;-63
2023/02/16 11:03:09;;;;;;;3.63;1.52;;;11.80;99.90;;;;;;5054227;28;20124;-63
2023/02/16 11:05:37;;;;;;;4.25;1.65;;;11.80;99.90;;;;;;5053895;28;20364;-62
2023/02/16 11:08:03;;;;;;;9.35;2.08;;;11.80;99.90;;;;;;5053430;28;20049;-60
2023/02/16 11:10:30;;;;;;;6.32;1.90;;;11.70;99.90;;;;;;5053735;28;20455;-62
2023/02/16 11:12:57;;;;;;;4.00;1.77;;;11.70;99.90;;;;;;5053787;28;20438;-63
2023/02/16 11:15:24;;;;;;;5.32;2.08;;;11.70;99.90;;;;;;5053531;28;20507;-61
2023/02/16 11:17:51;;;;;;;4.47;2.03;;;11.70;99.90;;;;;;5053637;28;20068;-62
2023/02/16 11:20:18;;;;;;;4.30;1.83;;;11.60;99.90;;;;;;5053619;28;20045;-63
2023/02/16 11:22:45;;;;;;;4.60;1.80;;;11.60;99.90;;;;;;5053748;28;20065;-64
2023/02/16 11:25:11;;;;;;;4.60;1.75;;;11.60;99.90;;;;;;5053333;28;20037;-63
2023/02/16 11:27:38;;;;;;;4.30;1.60;;;11.70;99.90;;;;;;5053581;28;20036;-62
2023/02/16 11:30:05;;;;;;;3.67;1.63;;;11.70;99.90;;;;;;5053406;28;20072;-59
2023/02/16 11:32:32;;;;;;;4.07;1.65;;;11.70;99.90;;;;;;5053251;28;20051;-61
2023/02/16 11:34:59;;;;;;;4.38;1.50;;;11.80;99.90;;;;;;5053603;28;20048;-64
2023/02/16 11:37:26;;;;;;;4.53;1.90;;;11.80;99.90;;;;;;5053278;28;20549;-62
2023/02/16 11:39:53;;;;;;;3.28;1.42;;;11.90;99.90;;;;;;5053291;28;20072;-62
2023/02/16 11:42:20;;;;;;;3.60;1.58;;;11.90;99.90;;;;;;5052698;28;20492;-60
2023/02/16 11:44:47;;;;;;;5.05;1.70;;;12.00;99.90;;;;;;5052042;28;20095;-64
2023/02/16 11:47:14;;;;;;;4.50;1.50;;;12.00;99.90;;;;;;5053153;28;20033;-60
2023/02/16 11:49:41;;;;;;;4.40;1.70;;;12.00;99.90;;;;;;5052250;28;20074;-62
2023/02/16 11:52:07;;;;;;;1.80;1.23;;;12.10;99.90;;;;;;5053296;28;20396;-63
2023/02/16 11:54:34;;;;;;;2.15;1.10;;;12.10;99.90;;;;;;5052946;28;20052;-62
2023/02/16 11:57:01;;;;;;;3.35;1.30;;;12.10;99.90;;;;;;5053196;28;20492;-62
2023/02/16 11:59:28;;;;;;;2.75;1.10;;;12.20;99.90;;;;;;5053330;28;20037;-63
2023/02/16 12:01:55;;;;;;;2.45;1.20;;;12.30;99.90;;;;;;5053257;28;20041;-64
2023/02/16 12:04:22;;;;;;;1.98;1.05;;;12.40;99.90;;;;;;5051671;28;20075;-62
2023/02/16 12:06:48;;;;;;;2.45;1.13;;;12.40;99.90;;;;;;5052887;28;20072;-64
2023/02/16 12:09:15;;;;;;;2.30;1.05;;;12.50;99.90;;;;;;5052954;28;20044;-62
2023/02/16 12:11:42;;;;;;;3.35;1.20;;;12.50;99.90;;;;;;5052910;28;20037;-63
2023/02/16 12:14:09;;;;;;;2.30;1.10;;;12.50;99.90;;;;;;5052875;28;20442;-61
2023/02/16 12:16:36;;;;;;;2.22;1.00;;;12.50;99.90;;;;;;5052786;28;20143;-61
2023/02/16 12:19:03;;;;;;;3.53;1.70;;;12.50;99.90;;;;;;5052769;28;20530;-63
2023/02/16 12:21:30;;;;;;;5.80;1.40;;;12.50;99.90;;;;;;5053134;28;20055;-62
2023/02/16 12:23:57;;;;;;;2.70;1.70;;;12.50;99.90;;;;;;5053239;28;20484;-62
2023/02/16 12:26:25;;;;;;;4.93;2.00;;;12.50;99.90;;;;;;5052787;28;20048;-64
2023/02/16 12:28:52;;;;;;;3.17;1.67;;;12.50;99.90;;;;;;5052873;28;20048;-61
2023/02/16 12:31:20;;;;;;;3.55;1.60;;;12.50;99.90;;;;;;5053115;28;20041;-61
2023/02/16 12:33:48;;;;;;;2.83;1.60;;;12.70;99.90;;;;;;5053091;28;20477;-62
2023/02/16 12:36:15;;;;;;;2.80;1.50;;;12.70;99.90;;;;;;5052905;28;20112;-61
2023/02/16 12:38:41;;;;;;;2.83;1.30;;;12.80;99.90;;;;;;5052885;28;20519;-61
2023/02/16 12:41:08;;;;;;;2.13;1.27;;;12.80;99.90;;;;;;5053152;28;20041;-61
2023/02/16 12:43:35;;;;;;;4.40;1.20;;;12.80;99.90;;;;;;5052945;28;20049;-63
2023/02/16 12:46:02;;;;;;;2.78;1.27;;;12.80;99.90;;;;;;5052917;28;20041;-62
2023/02/16 12:48:29;;;;;;;3.28;1.52;;;12.80;99.90;;;;;;5053316;28;20033;-63
2023/02/16 12:50:56;;;;;;;2.03;1.17;;;12.70;99.90;;;;;;5052915;28;20044;-62
2023/02/16 12:53:26;;;;;;;3.47;1.85;;;12.70;99.90;;;;;;5055071;28;20041;-63
2023/02/16 12:55:54;;;;;;;3.15;1.33;;;12.70;99.90;;;;;;5057252;28;20092;-61
2023/02/16 12:58:21;;;;;;;4.70;1.35;;;12.70;99.90;;;;;;5056045;28;20041;-61
2023/02/16 13:00:48;;;;;;;2.60;1.20;;;12.70;99.90;;;;;;5056024;28;20374;-63
2023/02/16 13:03:15;;;;;;;3.10;1.30;;;12.80;99.90;;;;;;5056444;28;20049;-63
2023/02/16 13:05:42;;;;;;;2.65;1.27;;;12.90;99.90;;;;;;5055923;28;20045;-61
2023/02/16 13:08:09;;;;;;;2.97;1.00;;;12.90;99.90;;;;;;5056038;28;20388;-63
2023/02/16 13:10:36;;;;;;;2.13;1.40;;;13.00;99.90;;;;;;5056172;28;20041;-62
2023/02/16 13:13:02;;;;;;;17.05;14.63;;;13.10;99.90;;;;;;5056039;28;20057;-61
2023/02/16 13:15:29;;;;;;;11.95;8.38;;;13.10;99.90;;;;;;5055599;28;20068;-57
2023/02/16 13:17:56;;;;;;;2.47;1.20;;;13.10;99.90;;;;;;5054419;28;20063;-62
2023/02/16 13:20:23;;;;;;;2.25;0.90;;;13.10;99.90;;;;;;5055949;28;20041;-62
2023/02/16 13:22:49;;;;;;;1.52;0.85;;;13.00;99.90;;;;;;5056021;28;20420;-61
2023/02/16 13:25:16;;;;;;;3.10;0.80;;;13.00;99.90;;;;;;5054095;28;20556;-61